Time;durP1;ratioP1;P1;durP2;ratioP2;P2;SDS_P1;SDS_P2;PMS_P1;PMS_P2;Temp;Humidity;BMP_temperature;BMP_pressure;BME280_temperature;BME280_humidity;BME280_pressure;Samples;Min_cycle;Max_cycle;Signal;HPM_P1;HPM_P2
2023/05/04 00:00:46;;;;;;;9.57;5.60;;;;;;;;;;5092327;28;20381;-64
2023/05/04 00:03:12;;;;;;;10.90;5.25;;;;;;;;;;5107004;28;20031;-64
2023/05/04 00:05:38;;;;;;;12.00;6.50;;;;;;;;;;5106342;28;20455;-64
2023/05/04 00:08:04;;;;;;;14.10;6.18;;;;;;;;;;5103367;28;20053;-64
2023/05/04 00:10:30;;;;;;;12.00;5.47;;;;;;;;;;5111218;28;20503;-64
2023/05/04 00:12:56;;;;;;;11.60;6.35;;;;;;;;;;5106749;28;20032;-64
2023/05/04 00:15:22;;;;;;;9.63;6.32;;;;;;;;;;5111021;28;20108;-64
2023/05/04 00:17:48;;;;;;;11.68;5.80;;;;;;;;;;5110168;28;20119;-64
2023/05/04 00:20:14;;;;;;;11.65;5.57;;;;;;;;;;5104877;28;20131;-64
2023/05/04 00:22:40;;;;;;;12.07;5.47;;;;;;;;;;5106130;28;20048;-64
2023/05/04 00:25:07;;;;;;;9.23;5.78;;;;;;;;;;5103154;28;20067;-64
2023/05/04 00:27:34;;;;;;;14.20;6.22;;;;;;;;;;5112377;28;20039;-64
2023/05/04 00:30:00;;;;;;;11.80;6.10;;;;;;;;;;5111690;28;20420;-64
2023/05/04 00:32:26;;;;;;;11.98;6.43;;;;;;;;;;5110456;28;20032;-64
2023/05/04 00:34:52;;;;;;;9.98;6.05;;;;;;;;;;5108873;28;20071;-64
2023/05/04 00:37:18;;;;;;;11.63;6.80;;;;;;;;;;5111870;28;20032;-64
2023/05/04 00:39:44;;;;;;;12.25;6.05;;;;;;;;;;5099010;28;21310;-64
2023/05/04 00:42:10;;;;;;;13.93;6.32;;;;;;;;;;5089738;28;20042;-64
2023/05/04 00:44:39;;;;;;;12.80;6.65;;;;;;;;;;5111707;28;20036;-64
2023/05/04 00:47:05;;;;;;;11.55;6.07;;;;;;;;;;5111795;28;20036;-64
2023/05/04 00:49:32;;;;;;;10.40;5.93;;;;;;;;;;5110389;28;20080;-64
2023/05/04 00:51:58;;;;;;;11.80;6.00;;;;;;;;;;5108494;28;20076;-64
2023/05/04 00:54:24;;;;;;;10.88;6.15;;;;;;;;;;5105255;28;20512;-64
2023/05/04 00:56:51;;;;;;;12.68;5.95;;;;;;;;;;5106153;27;20047;-64
2023/05/04 00:59:17;;;;;;;9.80;6.03;;;;;;;;;;5113634;28;20267;-64
2023/05/04 01:01:43;;;;;;;11.95;6.57;;;;;;;;;;5110161;28;20115;-64
2023/05/04 01:04:09;;;;;;;12.18;6.38;;;;;;;;;;5114635;28;20032;-64
2023/05/04 01:06:44;;;;;;;11.80;6.15;;;;;;;;;;5105738;28;20485;-64
2023/05/04 01:09:28;;;;;;;13.00;6.68;;;;;;;;;;5115700;28;20083;-64
2023/05/04 01:12:00;;;;;;;11.40;6.18;;;;;;;;;;5112692;28;20047;-64
2023/05/04 01:14:27;;;;;;;12.32;6.15;;;;;;;;;;5071693;28;20055;-64
2023/05/04 01:16:54;;;;;;;11.45;6.35;;;;;;;;;;5097307;27;20434;-64
2023/05/04 01:19:21;;;;;;;12.00;6.10;;;;;;;;;;5115687;28;20043;-64
2023/05/04 01:21:47;;;;;;;11.20;5.75;;;;;;;;;;5112925;28;20492;-64
2023/05/04 01:24:14;;;;;;;9.48;6.03;;;;;;;;;;5106876;28;20512;-64
2023/05/04 01:26:41;;;;;;;14.45;6.00;;;;;;;;;;5097406;28;20058;-64
2023/05/04 01:29:25;;;;;;;15.90;6.78;;;;;;;;;;5114389;28;20473;-64
2023/05/04 01:31:52;;;;;;;13.40;6.43;;;;;;;;;;5096239;22;20036;-62
2023/05/04 01:34:18;;;;;;;13.30;6.60;;;;;;;;;;5087163;28;20081;-62
2023/05/04 01:36:44;;;;;;;12.23;6.50;;;;;;;;;;5077003;28;20032;-62
2023/05/04 01:39:10;;;;;;;13.20;7.05;;;;;;;;;;5075779;28;20514;-62
2023/05/04 01:41:36;;;;;;;15.13;6.78;;;;;;;;;;5090011;28;20032;-62
2023/05/04 01:44:03;;;;;;;12.75;6.15;;;;;;;;;;5086547;28;20096;-62
2023/05/04 01:46:29;;;;;;;11.93;7.18;;;;;;;;;;5093251;28;20486;-62
2023/05/04 01:48:55;;;;;;;11.63;7.13;;;;;;;;;;5095042;28;20115;-62
2023/05/04 01:51:21;;;;;;;11.10;6.40;;;;;;;;;;5070243;28;20039;-62
2023/05/04 01:53:47;;;;;;;13.77;6.80;;;;;;;;;;5092935;28;20040;-62
2023/05/04 01:56:13;;;;;;;14.05;7.00;;;;;;;;;;5080494;28;20174;-62
2023/05/04 01:58:39;;;;;;;13.52;6.80;;;;;;;;;;5077313;28;20076;-62
2023/05/04 02:01:05;;;;;;;14.70;6.78;;;;;;;;;;5085846;28;20028;-62
2023/05/04 02:03:31;;;;;;;12.75;7.10;;;;;;;;;;5073275;28;20089;-62
2023/05/04 02:05:57;;;;;;;13.30;7.15;;;;;;;;;;5071180;28;20040;-62
2023/05/04 02:08:23;;;;;;;11.70;6.63;;;;;;;;;;5092141;28;20035;-62
2023/05/04 02:10:49;;;;;;;13.80;7.28;;;;;;;;;;5089787;28;20043;-62
2023/05/04 02:13:15;;;;;;;15.05;7.00;;;;;;;;;;5077033;28;20573;-62
2023/05/04 02:15:41;;;;;;;12.98;7.22;;;;;;;;;;5064350;28;20098;-62
2023/05/04 02:18:07;;;;;;;15.23;7.18;;;;;;;;;;5091121;28;20505;-62
2023/05/04 02:20:33;;;;;;;12.93;7.07;;;;;;;;;;5087263;28;20145;-62
2023/05/04 02:22:59;;;;;;;12.55;7.10;;;;;;;;;;5052937;28;20036;-62
2023/05/04 02:25:25;;;;;;;14.43;7.57;;;;;;;;;;5089316;28;20039;-62
2023/05/04 02:27:51;;;;;;;16.08;7.47;;;;;;;;;;5084659;28;20383;-62
2023/05/04 02:30:17;;;;;;;17.02;7.20;;;;;;;;;;5090421;28;20040;-62
2023/05/04 02:32:43;;;;;;;14.30;7.53;;;;;;;;;;5083796;28;20036;-62
2023/05/04 02:35:09;;;;;;;12.32;7.30;;;;;;;;;;5086459;28;20046;-62
2023/05/04 02:37:35;;;;;;;13.10;7.38;;;;;;;;;;5085076;28;20425;-62
2023/05/04 02:40:02;;;;;;;14.80;7.50;;;;;;;;;;5069490;28;20044;-62
2023/05/04 02:42:28;;;;;;;15.20;7.85;;;;;;;;;;5081436;28;20151;-62
2023/05/04 02:44:54;;;;;;;17.02;7.72;;;;;;;;;;5090792;28;20138;-62
2023/05/04 02:47:20;;;;;;;17.52;8.35;;;;;;;;;;5093615;28;20059;-62
2023/05/04 02:49:46;;;;;;;15.95;8.73;;;;;;;;;;5087759;28;20043;-62
2023/05/04 02:52:12;;;;;;;13.93;7.47;;;;;;;;;;5087835;28;20044;-62
2023/05/04 02:54:38;;;;;;;14.73;8.10;;;;;;;;;;5075613;28;20188;-62
2023/05/04 02:57:05;;;;;;;15.60;7.53;;;;;;;;;;5081464;28;20039;-62
2023/05/04 02:59:31;;;;;;;14.15;7.57;;;;;;;;;;5092408;28;20405;-62
2023/05/04 03:01:57;;;;;;;12.75;7.00;;;;;;;;;;5080120;28;20456;-62
2023/05/04 03:04:23;;;;;;;15.32;8.52;;;;;;;;;;5090160;28;20040;-62
2023/05/04 03:06:49;;;;;;;14.95;7.68;;;;;;;;;;5092386;28;20040;-62
2023/05/04 03:09:15;;;;;;;18.25;7.55;;;;;;;;;;5085508;28;20513;-62
2023/05/04 03:11:41;;;;;;;15.02;7.70;;;;;;;;;;5074743;28;20381;-62
2023/05/04 03:14:07;;;;;;;18.55;8.27;;;;;;;;;;5053318;28;20139;-62
2023/05/04 03:16:33;;;;;;;16.13;8.07;;;;;;;;;;5072248;28;20039;-62
2023/05/04 03:18:59;;;;;;;16.13;7.65;;;;;;;;;;5090302;28;20111;-62
2023/05/04 03:21:25;;;;;;;12.43;7.15;;;;;;;;;;5067780;28;20545;-62
2023/05/04 03:23:51;;;;;;;16.08;7.35;;;;;;;;;;5082397;28;20045;-62
2023/05/04 03:26:17;;;;;;;19.30;8.35;;;;;;;;;;5084523;28;20490;-62
2023/05/04 03:28:43;;;;;;;14.05;7.78;;;;;;;;;;5074676;28;20480;-62
2023/05/04 03:31:09;;;;;;;16.30;7.90;;;;;;;;;;5083701;28;20040;-62
2023/05/04 03:33:35;;;;;;;14.80;8.00;;;;;;;;;;5087457;28;20036;-62
2023/05/04 03:36:01;;;;;;;14.93;7.68;;;;;;;;;;5092826;28;20039;-62
2023/05/04 03:38:27;;;;;;;17.50;8.50;;;;;;;;;;5090856;28;20378;-62
2023/05/04 03:40:53;;;;;;;16.27;7.43;;;;;;;;;;5087909;28;20066;-62
2023/05/04 03:43:19;;;;;;;14.57;7.32;;;;;;;;;;5081905;28;20398;-62
2023/05/04 03:45:45;;;;;;;19.45;7.32;;;;;;;;;;5071273;28;20040;-62
2023/05/04 03:48:11;;;;;;;14.95;7.78;;;;;;;;;;5054754;28;20048;-62
2023/05/04 03:50:37;;;;;;;16.20;7.65;;;;;;;;;;5054481;28;20745;-62
2023/05/04 03:53:03;;;;;;;16.73;7.45;;;;;;;;;;5035528;28;20079;-62
2023/05/04 03:55:29;;;;;;;14.48;7.90;;;;;;;;;;5058148;28;20028;-62
2023/05/04 03:57:55;;;;;;;12.98;7.07;;;;;;;;;;5056473;28;20071;-63
2023/05/04 04:00:21;;;;;;;16.02;8.25;;;;;;;;;;5077953;28;20063;-62
2023/05/04 04:02:47;;;;;;;15.85;8.32;;;;;;;;;;5063918;28;20379;-62
2023/05/04 04:05:13;;;;;;;16.60;8.75;;;;;;;;;;5080626;28;20525;-62
2023/05/04 04:07:40;;;;;;;15.93;8.63;;;;;;;;;;5083376;28;20111;-62
2023/05/04 04:10:06;;;;;;;15.30;8.25;;;;;;;;;;5058468;28;20040;-62
2023/05/04 04:12:32;;;;;;;14.30;8.15;;;;;;;;;;5054861;28;20074;-62
2023/05/04 04:14:58;;;;;;;14.45;8.10;;;;;;;;;;5057838;28;20071;-62
2023/05/04 04:17:24;;;;;;;16.08;7.97;;;;;;;;;;5091362;28;20113;-62
2023/05/04 04:19:50;;;;;;;15.45;8.15;;;;;;;;;;5087700;28;20028;-62
2023/05/04 04:22:16;;;;;;;16.95;8.40;;;;;;;;;;5073884;28;20041;-62
2023/05/04 04:24:42;;;;;;;15.70;7.95;;;;;;;;;;5088246;28;20047;-62
2023/05/04 04:27:08;;;;;;;15.38;8.63;;;;;;;;;;5063315;28;20545;-62
2023/05/04 04:29:34;;;;;;;16.73;8.60;;;;;;;;;;5089356;28;20048;-62
2023/05/04 04:32:01;;;;;;;14.48;8.45;;;;;;;;;;5081086;28;20095;-63
2023/05/04 04:34:27;;;;;;;13.77;7.50;;;;;;;;;;5090484;28;20512;-62
2023/05/04 04:36:53;;;;;;;21.67;9.40;;;;;;;;;;5085746;28;20040;-62
2023/05/04 04:39:19;;;;;;;19.83;9.75;;;;;;;;;;5077938;28;20371;-62
2023/05/04 04:41:45;;;;;;;15.45;8.10;;;;;;;;;;5083128;28;20111;-62
2023/05/04 04:44:11;;;;;;;17.25;8.88;;;;;;;;;;5084485;28;20032;-62
2023/05/04 04:46:37;;;;;;;14.95;8.55;;;;;;;;;;5068030;28;20036;-62
2023/05/04 04:49:03;;;;;;;20.45;8.48;;;;;;;;;;5090540;28;20466;-61
2023/05/04 04:51:29;;;;;;;19.35;9.20;;;;;;;;;;5081844;28;20086;-62
2023/05/04 04:53:55;;;;;;;14.95;8.35;;;;;;;;;;5081201;28;20049;-62
2023/05/04 04:56:21;;;;;;;15.10;8.75;;;;;;;;;;5087696;28;20406;-61
2023/05/04 04:58:47;;;;;;;16.20;8.52;;;;;;;;;;5082149;28;20104;-62
2023/05/04 05:01:17;;;;;;;20.88;9.00;;;;;;;;;;5071164;28;20040;-62
2023/05/04 05:03:44;;;;;;;20.77;8.57;;;;;;;;;;5078660;28;20043;-62
2023/05/04 05:06:10;;;;;;;17.88;8.38;;;;;;;;;;5087450;28;20036;-62
2023/05/04 05:08:36;;;;;;;18.05;9.30;;;;;;;;;;5078274;28;20478;-62
2023/05/04 05:11:02;;;;;;;16.52;8.27;;;;;;;;;;5088144;28;20059;-62
2023/05/04 05:13:30;;;;;;;18.02;8.73;;;;;;;;;;5084829;28;20047;-62
2023/05/04 05:15:56;;;;;;;14.70;9.15;;;;;;;;;;5089262;28;20040;-62
2023/05/04 05:18:22;;;;;;;17.95;9.07;;;;;;;;;;5085695;28;20042;-62
2023/05/04 05:20:49;;;;;;;16.98;9.07;;;;;;;;;;5084227;28;20374;-63
2023/05/04 05:23:15;;;;;;;15.68;9.02;;;;;;;;;;5062786;28;20051;-62
2023/05/04 05:25:42;;;;;;;16.33;9.43;;;;;;;;;;5081594;28;20032;-62
2023/05/04 05:28:08;;;;;;;22.83;8.57;;;;;;;;;;5066166;28;20125;-62
2023/05/04 05:30:34;;;;;;;19.73;8.52;;;;;;;;;;5077713;28;20044;-61
2023/05/04 05:33:00;;;;;;;19.35;8.40;;;;;;;;;;5077993;28;20028;-62
2023/05/04 05:35:26;;;;;;;17.85;9.25;;;;;;;;;;5070558;28;20089;-61
2023/05/04 05:37:52;;;;;;;18.90;9.05;;;;;;;;;;5086296;28;20036;-61
2023/05/04 05:40:18;;;;;;;14.95;8.25;;;;;;;;;;5080842;28;20040;-62
2023/05/04 05:42:45;;;;;;;16.13;8.95;;;;;;;;;;5081097;28;20036;-62
2023/05/04 05:45:11;;;;;;;18.85;9.00;;;;;;;;;;5071054;28;20040;-62
2023/05/04 05:47:37;;;;;;;17.45;8.90;;;;;;;;;;5083670;28;20032;-62
2023/05/04 05:50:03;;;;;;;15.55;9.10;;;;;;;;;;5075547;28;20044;-62
2023/05/04 05:52:29;;;;;;;16.35;9.05;;;;;;;;;;5088839;28;20121;-62
2023/05/04 05:54:55;;;;;;;16.48;8.27;;;;;;;;;;5089274;28;20126;-62
2023/05/04 05:57:21;;;;;;;19.80;9.30;;;;;;;;;;5087786;28;20475;-61
2023/05/04 05:59:47;;;;;;;15.77;8.85;;;;;;;;;;5092907;28;20048;-62
2023/05/04 06:02:14;;;;;;;18.75;10.13;;;;;;;;;;5092588;28;20120;-62
2023/05/04 06:04:46;;;;;;;17.63;9.43;;;;;;;;;;5085514;28;20032;-62
2023/05/04 06:07:15;;;;;;;17.23;9.20;;;;;;;;;;5093010;28;20059;-62
2023/05/04 06:09:41;;;;;;;16.33;9.25;;;;;;;;;;5062128;28;20032;-62
2023/05/04 06:12:12;;;;;;;14.88;8.98;;;;;;;;;;5085206;28;20057;-62
2023/05/04 06:14:38;;;;;;;15.02;8.73;;;;;;;;;;5092943;28;20501;-62
2023/05/04 06:17:04;;;;;;;19.10;9.25;;;;;;;;;;5068493;28;20489;-62
2023/05/04 06:19:33;;;;;;;18.23;9.75;;;;;;;;;;5086163;28;20039;-62
2023/05/04 06:21:59;;;;;;;17.15;8.93;;;;;;;;;;5093646;28;20067;-62
2023/05/04 06:24:25;;;;;;;17.27;9.32;;;;;;;;;;5090350;28;20089;-62
2023/05/04 06:26:51;;;;;;;16.98;10.15;;;;;;;;;;5089772;28;20047;-62
2023/05/04 06:29:17;;;;;;;13.55;8.13;;;;;;;;;;5067800;28;20087;-62
2023/05/04 06:31:45;;;;;;;17.90;9.73;;;;;;;;;;5072918;28;20068;-62
2023/05/04 06:34:11;;;;;;;19.25;9.27;;;;;;;;;;5100785;28;20044;-62
2023/05/04 06:36:37;;;;;;;16.33;8.85;;;;;;;;;;5090230;28;20055;-62
2023/05/04 06:39:03;;;;;;;20.50;9.00;;;;;;;;;;5085937;28;20032;-62
2023/05/04 06:41:29;;;;;;;18.27;9.98;;;;;;;;;;5084258;28;20028;-62
2023/05/04 06:43:56;;;;;;;32.72;11.82;;;;;;;;;;5073302;28;20079;-62
2023/05/04 06:46:22;;;;;;;17.25;9.18;;;;;;;;;;5084095;28;20039;-62
2023/05/04 06:48:48;;;;;;;20.90;9.85;;;;;;;;;;5084113;28;20048;-62
2023/05/04 06:51:15;;;;;;;16.25;9.30;;;;;;;;;;5073638;28;20044;-62
2023/05/04 06:53:41;;;;;;;19.00;9.95;;;;;;;;;;5089768;28;20044;-62
2023/05/04 06:56:07;;;;;;;14.63;9.10;;;;;;;;;;5069010;28;20036;-62
2023/05/04 06:58:33;;;;;;;15.43;8.48;;;;;;;;;;5083334;28;20191;-62
2023/05/04 07:01:00;;;;;;;14.00;8.95;;;;;;;;;;5092873;28;20032;-62
2023/05/04 07:03:26;;;;;;;18.08;8.95;;;;;;;;;;5093194;28;20063;-62
2023/05/04 07:05:52;;;;;;;15.88;8.88;;;;;;;;;;5084025;28;20417;-62
2023/05/04 07:08:18;;;;;;;17.98;9.98;;;;;;;;;;5065577;28;20036;-62
2023/05/04 07:10:45;;;;;;;16.58;8.90;;;;;;;;;;5088789;28;20044;-62
2023/05/04 07:13:11;;;;;;;15.10;8.55;;;;;;;;;;5091589;28;20385;-62
2023/05/04 07:15:37;;;;;;;14.88;9.02;;;;;;;;;;5081799;28;20040;-62
2023/05/04 07:18:03;;;;;;;19.02;9.20;;;;;;;;;;5083094;28;20050;-62
2023/05/04 07:20:29;;;;;;;16.48;9.35;;;;;;;;;;5087645;28;20028;-63
2023/05/04 07:22:55;;;;;;;14.80;8.85;;;;;;;;;;5083901;28;20044;-62
2023/05/04 07:25:25;;;;;;;15.00;8.95;;;;;;;;;;5086309;28;20050;-62
2023/05/04 07:27:51;;;;;;;18.90;9.55;;;;;;;;;;5089760;28;20040;-62
2023/05/04 07:30:18;;;;;;;14.10;8.50;;;;;;;;;;5079142;28;20067;-62
2023/05/04 07:32:45;;;;;;;15.95;9.05;;;;;;;;;;5104509;22;20219;-64
2023/05/04 07:35:11;;;;;;;20.50;9.07;;;;;;;;;;5113911;27;20047;-65
2023/05/04 07:37:37;;;;;;;13.52;8.50;;;;;;;;;;5116306;27;20031;-65
2023/05/04 07:40:06;;;;;;;14.07;8.30;;;;;;;;;;5114409;27;20036;-65
2023/05/04 07:42:32;;;;;;;13.43;8.20;;;;;;;;;;5114343;27;20028;-64
2023/05/04 07:44:58;;;;;;;16.33;9.40;;;;;;;;;;5102206;28;20043;-64
2023/05/04 07:47:24;;;;;;;15.43;9.00;;;;;;;;;;5104263;28;20467;-64
2023/05/04 07:49:50;;;;;;;13.65;8.43;;;;;;;;;;5103533;28;20036;-64
2023/05/04 07:52:16;;;;;;;14.55;8.95;;;;;;;;;;5104778;28;20036;-64
2023/05/04 07:54:42;;;;;;;14.88;8.73;;;;;;;;;;5104037;28;20092;-64
2023/05/04 07:57:09;;;;;;;13.98;9.18;;;;;;;;;;5098297;28;20400;-64
2023/05/04 07:59:35;;;;;;;15.68;8.35;;;;;;;;;;5090187;28;20062;-64
2023/05/04 08:02:01;;;;;;;13.77;8.70;;;;;;;;;;5090646;28;20063;-65
2023/05/04 08:04:27;;;;;;;15.30;8.35;;;;;;;;;;5085574;28;20071;-65
2023/05/04 08:06:53;;;;;;;17.00;9.07;;;;;;;;;;5084903;28;20044;-64
2023/05/04 08:09:19;;;;;;;11.98;8.20;;;;;;;;;;5073084;28;20172;-64
2023/05/04 08:11:46;;;;;;;12.55;8.20;;;;;;;;;;5089921;28;20073;-64
2023/05/04 08:14:12;;;;;;;13.07;7.95;;;;;;;;;;5089396;28;20040;-64
2023/05/04 08:16:41;;;;;;;15.05;8.25;;;;;;;;;;5088195;28;20036;-65
2023/05/04 08:19:07;;;;;;;13.40;8.02;;;;;;;;;;5088545;28;20039;-64
2023/05/04 08:21:33;;;;;;;14.27;8.15;;;;;;;;;;5090313;28;20032;-64
2023/05/04 08:23:59;;;;;;;15.75;8.40;;;;;;;;;;5091084;28;20501;-64
2023/05/04 08:26:25;;;;;;;14.10;8.15;;;;;;;;;;5089560;28;20036;-64
2023/05/04 08:28:51;;;;;;;13.93;8.15;;;;;;;;;;5090421;28;20042;-65
2023/05/04 08:31:17;;;;;;;13.07;8.00;;;;;;;;;;5084504;28;20445;-64
2023/05/04 08:33:44;;;;;;;13.30;8.13;;;;;;;;;;5086083;28;20040;-64
2023/05/04 08:36:10;;;;;;;13.27;7.60;;;;;;;;;;5090440;28;20036;-64
2023/05/04 08:38:36;;;;;;;13.63;7.68;;;;;;;;;;5092144;28;20036;-64
2023/05/04 08:41:03;;;;;;;14.18;7.43;;;;;;;;;;5089564;28;20040;-65
2023/05/04 08:43:29;;;;;;;11.73;7.80;;;;;;;;;;5090633;28;20032;-65
2023/05/04 08:45:55;;;;;;;13.45;8.50;;;;;;;;;;5083972;28;20036;-65
2023/05/04 08:48:21;;;;;;;13.18;7.75;;;;;;;;;;5090110;28;20028;-64
2023/05/04 08:50:47;;;;;;;14.85;8.15;;;;;;;;;;5080643;28;20513;-65
2023/05/04 08:53:14;;;;;;;12.10;7.90;;;;;;;;;;5085560;28;20032;-65
2023/05/04 08:55:41;;;;;;;11.85;7.63;;;;;;;;;;5072927;28;20504;-65
2023/05/04 08:58:10;;;;;;;14.60;7.70;;;;;;;;;;5082410;28;20047;-64
2023/05/04 09:00:37;;;;;;;12.00;7.78;;;;;;;;;;5087246;28;20032;-64
2023/05/04 09:03:04;;;;;;;12.55;7.85;;;;;;;;;;5087764;28;20520;-65
2023/05/04 09:05:31;;;;;;;14.70;7.93;;;;;;;;;;5087761;28;20044;-65
2023/05/04 09:07:57;;;;;;;15.55;7.85;;;;;;;;;;5088030;28;20115;-65
2023/05/04 09:10:24;;;;;;;15.55;8.40;;;;;;;;;;5089040;28;20113;-65
2023/05/04 09:13:11;;;;;;;11.35;7.65;;;;;;;;;;5086793;28;20577;-65
2023/05/04 09:15:37;;;;;;;8.80;6.85;;;;;;;;;;5070984;28;20091;-66
2023/05/04 09:18:05;;;;;;;11.07;7.57;;;;;;;;;;5094596;28;20532;-64
2023/05/04 09:20:42;;;;;;;13.15;7.80;;;;;;;;;;5093744;28;20043;-65
2023/05/04 09:23:08;;;;;;;14.68;8.10;;;;;;;;;;5094206;28;20043;-65
2023/05/04 09:25:46;;;;;;;15.35;8.52;;;;;;;;;;5091681;28;20546;-64
2023/05/04 09:28:12;;;;;;;11.57;7.13;;;;;;;;;;5082295;28;20036;-65
2023/05/04 09:30:38;;;;;;;9.88;7.28;;;;;;;;;;5092315;28;20408;-65
2023/05/04 09:33:05;;;;;;;10.55;7.65;;;;;;;;;;5094589;28;20048;-65
2023/05/04 09:35:31;;;;;;;12.00;7.63;;;;;;;;;;5091075;28;20485;-65
2023/05/04 09:37:57;;;;;;;11.73;7.00;;;;;;;;;;5094322;28;20036;-65
2023/05/04 09:40:39;;;;;;;12.45;7.30;;;;;;;;;;5086096;28;20119;-65
2023/05/04 09:43:06;;;;;;;11.23;7.00;;;;;;;;;;5093663;28;20036;-65
2023/05/04 09:45:42;;;;;;;11.10;6.93;;;;;;;;;;5086287;28;20118;-65
2023/05/04 09:51:15;;;;;;;10.82;6.32;;;;;;;;;;5086611;28;20439;-65
2023/05/04 09:53:42;;;;;;;11.20;7.07;;;;;;;;;;5087010;28;20115;-65
2023/05/04 09:56:10;;;;;;;9.02;6.40;;;;;;;;;;5087870;28;20506;-66
2023/05/04 09:58:36;;;;;;;10.57;6.20;;;;;;;;;;5091516;28;20050;-66
2023/05/04 10:01:02;;;;;;;10.88;7.03;;;;;;;;;;5090961;28;20478;-65
2023/05/04 10:03:29;;;;;;;11.68;7.05;;;;;;;;;;5090223;28;20043;-66
2023/05/04 10:05:56;;;;;;;8.85;6.80;;;;;;;;;;5090637;28;20044;-65
2023/05/04 10:08:22;;;;;;;9.77;6.35;;;;;;;;;;5092741;28;20043;-66
2023/05/04 10:10:48;;;;;;;10.13;6.32;;;;;;;;;;5084965;28;20084;-65
2023/05/04 10:13:16;;;;;;;8.40;5.95;;;;;;;;;;5087538;28;20492;-66
2023/05/04 10:15:50;;;;;;;9.85;6.15;;;;;;;;;;5092766;28;20040;-65
2023/05/04 10:18:35;;;;;;;11.30;6.70;;;;;;;;;;5083405;28;20119;-65
2023/05/04 10:21:14;;;;;;;6.78;4.95;;;;;;;;;;5089961;28;20036;-66
2023/05/04 10:23:43;;;;;;;7.70;5.03;;;;;;;;;;5093814;28;20044;-66
2023/05/04 10:26:28;;;;;;;9.20;5.72;;;;;;;;;;5091249;28;20032;-65
2023/05/04 10:29:10;;;;;;;9.38;6.15;;;;;;;;;;5091108;28;20055;-65
2023/05/04 10:31:42;;;;;;;8.25;6.00;;;;;;;;;;5090740;28;20082;-66
2023/05/04 10:34:09;;;;;;;11.48;6.07;;;;;;;;;;5083908;28;20036;-65
2023/05/04 10:36:38;;;;;;;8.30;5.40;;;;;;;;;;5091048;28;20103;-65
2023/05/04 10:39:18;;;;;;;11.40;5.45;;;;;;;;;;5093479;28;20043;-66
2023/05/04 10:41:55;;;;;;;8.73;5.63;;;;;;;;;;5093253;28;20047;-66
2023/05/04 10:44:21;;;;;;;10.10;5.68;;;;;;;;;;5090397;28;20065;-66
2023/05/04 10:46:55;;;;;;;10.52;5.82;;;;;;;;;;5086898;28;20047;-65
2023/05/04 10:49:21;;;;;;;9.48;5.65;;;;;;;;;;5090574;28;20478;-66
2023/05/04 10:51:47;;;;;;;9.30;5.32;;;;;;;;;;5088569;28;20054;-66
2023/05/04 10:54:20;;;;;;;11.85;5.18;;;;;;;;;;5086149;28;20036;-66
2023/05/04 10:56:46;;;;;;;8.88;5.00;;;;;;;;;;5072394;28;20047;-65
2023/05/04 10:59:13;;;;;;;6.47;4.43;;;;;;;;;;5082656;28;20028;-65
2023/05/04 11:01:46;;;;;;;11.00;5.40;;;;;;;;;;5088750;28;20032;-65
2023/05/04 11:04:19;;;;;;;8.98;4.75;;;;;;;;;;5090749;28;20040;-65
2023/05/04 11:06:55;;;;;;;9.18;5.18;;;;;;;;;;5073301;28;20502;-65
2023/05/04 11:09:21;;;;;;;10.13;5.00;;;;;;;;;;5084935;28;20486;-65
2023/05/04 11:11:47;;;;;;;5.07;4.45;;;;;;;;;;5091686;28;20047;-65
2023/05/04 11:14:20;;;;;;;7.68;4.70;;;;;;;;;;5071813;28;20402;-65
2023/05/04 11:16:46;;;;;;;5.40;4.07;;;;;;;;;;5092439;28;20042;-65
2023/05/04 11:19:12;;;;;;;7.88;4.80;;;;;;;;;;5090105;28;20031;-66
2023/05/04 11:21:40;;;;;;;6.85;4.65;;;;;;;;;;5091394;28;20044;-65
2023/05/04 11:24:06;;;;;;;7.70;4.97;;;;;;;;;;5091879;28;20397;-65
2023/05/04 11:26:32;;;;;;;8.93;4.93;;;;;;;;;;5091029;28;20111;-65
2023/05/04 11:28:57;;;;;;;7.50;4.97;;;;;;;;;;5087502;28;20181;-65
2023/05/04 11:31:24;;;;;;;7.15;4.03;;;;;;;;;;5087430;28;20050;-65
2023/05/04 11:33:52;;;;;;;6.53;4.30;;;;;;;;;;5085366;28;20051;-65
2023/05/04 11:36:18;;;;;;;7.80;4.38;;;;;;;;;;5077562;28;20031;-65
2023/05/04 11:38:44;;;;;;;6.95;4.63;;;;;;;;;;5084903;28;20111;-65
2023/05/04 11:41:11;;;;;;;9.00;4.28;;;;;;;;;;5087041;28;20032;-65
2023/05/04 11:43:37;;;;;;;10.45;4.30;;;;;;;;;;5089986;28;20043;-65
2023/05/04 11:46:03;;;;;;;5.60;4.05;;;;;;;;;;5090010;28;20040;-65
2023/05/04 11:48:31;;;;;;;9.18;4.35;;;;;;;;;;5084466;28;20489;-65
2023/05/04 11:50:57;;;;;;;8.50;4.57;;;;;;;;;;5088414;28;20444;-64
2023/05/04 11:53:23;;;;;;;7.47;3.83;;;;;;;;;;5089123;28;20081;-65
2023/05/04 11:55:53;;;;;;;6.35;3.85;;;;;;;;;;5092197;28;20188;-66
2023/05/04 11:58:23;;;;;;;5.93;4.10;;;;;;;;;;5091172;28;20043;-65
2023/05/04 12:00:54;;;;;;;6.32;4.03;;;;;;;;;;5085589;28;20043;-65
2023/05/04 12:03:20;;;;;;;;;;;;;;;;;;5091151;28;20036;-65
2023/05/04 12:05:47;;;;;;;7.20;3.65;;;;;;;;;;5092417;28;19926;-65
2023/05/04 12:08:26;;;;;;;7.60;3.85;;;;;;;;;;5089248;28;20097;-65
2023/05/04 12:11:08;;;;;;;7.07;4.30;;;;;;;;;;5074122;28;20486;-66
2023/05/04 12:13:35;;;;;;;8.93;4.53;;;;;;;;;;5091708;28;20055;-66
2023/05/04 12:16:27;;;;;;;8.48;4.70;;;;;;;;;;5092412;28;20044;-65
2023/05/04 12:19:02;;;;;;;8.18;5.25;;;;;;;;;;5084661;28;20050;-65
2023/05/04 12:21:29;;;;;;;13.85;5.00;;;;;;;;;;5091885;28;20074;-66
2023/05/04 12:23:56;;;;;;;7.85;4.10;;;;;;;;;;5071906;28;20048;-65
2023/05/04 12:26:22;;;;;;;7.70;4.05;;;;;;;;;;5092217;28;20044;-66
2023/05/04 12:28:48;;;;;;;7.70;4.28;;;;;;;;;;5091735;28;20032;-65
2023/05/04 12:31:14;;;;;;;5.75;3.42;;;;;;;;;;5092027;28;20036;-66
2023/05/04 12:33:40;;;;;;;8.90;4.05;;;;;;;;;;5091476;28;20062;-65
2023/05/04 12:36:07;;;;;;;7.85;3.97;;;;;;;;;;5089756;28;20036;-65
2023/05/04 12:38:33;;;;;;;9.32;4.45;;;;;;;;;;5088762;28;20075;-65
2023/05/04 12:41:02;;;;;;;8.90;4.55;;;;;;;;;;5088526;28;20244;-66
2023/05/04 12:43:28;;;;;;;6.97;5.50;;;;;;;;;;5091674;28;20553;-66
2023/05/04 12:45:54;;;;;;;8.85;4.68;;;;;;;;;;5091584;28;20035;-66
2023/05/04 12:48:20;;;;;;;5.85;3.70;;;;;;;;;;5090955;28;20485;-65
2023/05/04 12:50:47;;;;;;;8.43;4.28;;;;;;;;;;5089589;28;20038;-65
2023/05/04 12:53:14;;;;;;;8.38;4.90;;;;;;;;;;5090660;28;20126;-65
2023/05/04 12:55:40;;;;;;;7.40;3.53;;;;;;;;;;5085611;28;20451;-66
2023/05/04 12:58:06;;;;;;;6.38;3.13;;;;;;;;;;5090738;28;20162;-65
2023/05/04 13:00:35;;;;;;;5.65;2.83;;;;;;;;;;5091307;28;20086;-65
2023/05/04 13:03:01;;;;;;;4.82;3.15;;;;;;;;;;5091311;28;20040;-66
2023/05/04 13:05:27;;;;;;;9.23;3.97;;;;;;;;;;5087055;28;20044;-66
2023/05/04 13:07:53;;;;;;;6.07;4.10;;;;;;;;;;5089848;28;20032;-65
2023/05/04 13:10:20;;;;;;;12.45;4.05;;;;;;;;;;5090862;28;20070;-66
2023/05/04 13:12:46;;;;;;;6.70;3.67;;;;;;;;;;5091395;28;20071;-66
2023/05/04 13:15:12;;;;;;;8.95;3.85;;;;;;;;;;5086093;28;20036;-64
2023/05/04 13:17:38;;;;;;;6.18;3.72;;;;;;;;;;5086232;28;20035;-65
2023/05/04 13:20:05;;;;;;;8.70;4.20;;;;;;;;;;5079000;28;20040;-65
2023/05/04 13:22:32;;;;;;;7.13;4.28;;;;;;;;;;5087529;28;20047;-65
2023/05/04 13:24:58;;;;;;;7.65;4.20;;;;;;;;;;5078728;28;20048;-66
2023/05/04 13:27:24;;;;;;;7.10;4.07;;;;;;;;;;5096319;28;20058;-66
2023/05/04 13:29:49;;;;;;;6.55;4.18;;;;;;;;;;5070669;28;20036;-66
2023/05/04 13:34:47;;;;;;;6.50;4.78;;;;;;;;;;5067323;28;20045;-61
2023/05/04 13:37:17;;;;;;;8.10;4.28;;;;;;;;;;5071089;28;20044;-61
2023/05/04 13:39:43;;;;;;;7.53;4.20;;;;;;;;;;5065802;28;20406;-61
2023/05/04 13:42:10;;;;;;;7.07;3.63;;;;;;;;;;5066609;28;20546;-61
2023/05/04 13:44:36;;;;;;;5.55;3.97;;;;;;;;;;5046451;28;20527;-61
2023/05/04 13:47:02;;;;;;;6.80;3.85;;;;;;;;;;5043388;28;20132;-61
2023/05/04 13:49:29;;;;;;;7.07;4.25;;;;;;;;;;5043225;28;20045;-61
2023/05/04 13:51:58;;;;;;;8.95;4.05;;;;;;;;;;5045136;28;20045;-62
2023/05/04 13:54:24;;;;;;;4.85;3.70;;;;;;;;;;5046326;28;20041;-62
2023/05/04 13:56:51;;;;;;;8.45;4.43;;;;;;;;;;5044986;28;20034;-62
2023/05/04 13:59:17;;;;;;;9.05;4.32;;;;;;;;;;5048894;28;20037;-61
2023/05/04 14:01:43;;;;;;;9.23;4.60;;;;;;;;;;5052175;28;20037;-61
2023/05/04 14:04:09;;;;;;;6.72;4.78;;;;;;;;;;5049941;28;20051;-62
2023/05/04 14:06:35;;;;;;;7.20;4.30;;;;;;;;;;5053246;28;20064;-62
2023/05/04 14:09:01;;;;;;;8.40;4.18;;;;;;;;;;5051199;28;20095;-61
2023/05/04 14:11:27;;;;;;;7.05;4.45;;;;;;;;;;5053700;28;20108;-61
2023/05/04 14:13:54;;;;;;;10.48;4.60;;;;;;;;;;5052238;28;20041;-61
2023/05/04 14:16:20;;;;;;;21.15;4.72;;;;;;;;;;5051668;28;20041;-62
2023/05/04 14:18:46;;;;;;;8.43;4.35;;;;;;;;;;5052134;28;20033;-62
2023/05/04 14:21:12;;;;;;;8.30;4.40;;;;;;;;;;5046952;28;20537;-62
2023/05/04 14:23:38;;;;;;;5.00;4.05;;;;;;;;;;5052704;28;20032;-62
2023/05/04 14:26:04;;;;;;;9.00;4.32;;;;;;;;;;5051585;28;20403;-62
2023/05/04 14:28:31;;;;;;;7.50;4.40;;;;;;;;;;5053797;28;20132;-62
2023/05/04 14:30:57;;;;;;;8.63;4.30;;;;;;;;;;5052747;28;20045;-62
2023/05/04 14:33:23;;;;;;;6.85;4.63;;;;;;;;;;5050829;28;20045;-62
2023/05/04 14:35:49;;;;;;;7.55;4.47;;;;;;;;;;5052608;28;20052;-62
2023/05/04 14:38:15;;;;;;;6.93;4.82;;;;;;;;;;5047457;28;20041;-63